sensor_id;sensor_type;location;lat;lon;timestamp;pressure;altitude;pressure_sealevel;temperature;humidity
2711;BME280;20721;47.402;8.550;2022-07-29T00:00:12;96013;;;21.35;57.29
2711;BME280;20721;47.402;8.550;2022-07-29T00:01:19;96014;;;21.33;57.49
2711;BME280;20721;47.402;8.550;2022-07-29T00:02:12;96015;;;21.34;57.41
2711;BME280;20721;47.402;8.550;2022-07-29T00:03:12;96014;;;21.39;57.38
2711;BME280;20721;47.402;8.550;2022-07-29T00:04:12;96013;;;21.46;57.26
2711;BME280;20721;47.402;8.550;2022-07-29T00:06:16;96015;;;21.45;57.21
2711;BME280;20721;47.402;8.550;2022-07-29T00:07:14;96014;;;21.43;57.25
2711;BME280;20721;47.402;8.550;2022-07-29T00:08:13;96012;;;21.44;57.24
2711;BME280;20721;47.402;8.550;2022-07-29T00:09:12;96013;;;21.47;57.26
2711;BME280;20721;47.402;8.550;2022-07-29T00:10:12;96012;;;21.55;56.77
2711;BME280;20721;47.402;8.550;2022-07-29T00:11:12;96015;;;21.65;56.80
2711;BME280;20721;47.402;8.550;2022-07-29T00:12:12;96013;;;21.74;56.58
2711;BME280;20721;47.402;8.550;2022-07-29T00:13:12;96013;;;21.79;56.34
2711;BME280;20721;47.402;8.550;2022-07-29T00:14:12;96011;;;21.83;56.19
2711;BME280;20721;47.402;8.550;2022-07-29T00:15:12;96011;;;21.88;56.17
2711;BME280;20721;47.402;8.550;2022-07-29T00:16:12;96011;;;21.91;55.87
2711;BME280;20721;47.402;8.550;2022-07-29T00:17:12;96014;;;21.96;55.98
2711;BME280;20721;47.402;8.550;2022-07-29T00:18:12;96011;;;22.01;55.81
2711;BME280;20721;47.402;8.550;2022-07-29T00:19:12;96009;;;22.03;55.69
2711;BME280;20721;47.402;8.550;2022-07-29T00:20:12;96008;;;21.99;55.38
2711;BME280;20721;47.402;8.550;2022-07-29T00:21:12;96011;;;21.85;55.42
2711;BME280;20721;47.402;8.550;2022-07-29T00:22:12;96010;;;21.76;55.72
2711;BME280;20721;47.402;8.550;2022-07-29T00:23:13;96006;;;21.66;56.09
2711;BME280;20721;47.402;8.550;2022-07-29T00:24:12;96008;;;21.61;56.16
2711;BME280;20721;47.402;8.550;2022-07-29T00:25:12;96008;;;21.56;56.29
2711;BME280;20721;47.402;8.550;2022-07-29T00:26:12;96005;;;21.45;56.52
2711;BME280;20721;47.402;8.550;2022-07-29T00:27:12;96006;;;21.37;56.74
2711;BME280;20721;47.402;8.550;2022-07-29T00:28:12;96003;;;21.33;56.96
2711;BME280;20721;47.402;8.550;2022-07-29T00:29:22;96000;;;21.24;57.26
2711;BME280;20721;47.402;8.550;2022-07-29T00:30:12;96003;;;21.20;57.29
2711;BME280;20721;47.402;8.550;2022-07-29T00:31:12;96003;;;21.15;57.57
2711;BME280;20721;47.402;8.550;2022-07-29T00:32:12;96006;;;21.12;57.77
2711;BME280;20721;47.402;8.550;2022-07-29T00:33:12;96010;;;21.11;57.83
2711;BME280;20721;47.402;8.550;2022-07-29T00:34:22;96006;;;21.12;57.77
2711;BME280;20721;47.402;8.550;2022-07-29T00:35:22;96005;;;21.14;57.77
2711;BME280;20721;47.402;8.550;2022-07-29T00:36:12;96006;;;21.19;57.63
2711;BME280;20721;47.402;8.550;2022-07-29T00:37:12;96008;;;21.25;57.58
2711;BME280;20721;47.402;8.550;2022-07-29T00:38:12;96001;;;21.32;57.51
2711;BME280;20721;47.402;8.550;2022-07-29T00:39:12;96003;;;21.37;57.41
2711;BME280;20721;47.402;8.550;2022-07-29T00:40:12;96003;;;21.40;57.29
2711;BME280;20721;47.402;8.550;2022-07-29T00:41:12;96002;;;21.42;57.25
2711;BME280;20721;47.402;8.550;2022-07-29T00:42:12;95999;;;21.40;57.20
2711;BME280;20721;47.402;8.550;2022-07-29T00:43:16;95997;;;21.35;57.25
2711;BME280;20721;47.402;8.550;2022-07-29T00:45:12;95993;;;21.39;57.00
2711;BME280;20721;47.402;8.550;2022-07-29T00:46:12;95996;;;21.44;56.80
2711;BME280;20721;47.402;8.550;2022-07-29T00:49:12;95990;;;21.42;56.49
2711;BME280;20721;47.402;8.550;2022-07-29T00:50:12;95990;;;21.44;56.39
2711;BME280;20721;47.402;8.550;2022-07-29T00:51:12;95989;;;21.48;56.36
2711;BME280;20721;47.402;8.550;2022-07-29T00:52:12;95984;;;21.53;56.22
2711;BME280;20721;47.402;8.550;2022-07-29T00:53:12;95985;;;21.58;55.99
2711;BME280;20721;47.402;8.550;2022-07-29T00:54:12;95982;;;21.60;55.93
2711;BME280;20721;47.402;8.550;2022-07-29T00:55:12;95981;;;21.63;55.81
2711;BME280;20721;47.402;8.550;2022-07-29T00:56:12;95979;;;21.69;55.72
2711;BME280;20721;47.402;8.550;2022-07-29T00:57:12;95977;;;21.73;55.45
2711;BME280;20721;47.402;8.550;2022-07-29T00:59:12;95974;;;21.67;55.68
2711;BME280;20721;47.402;8.550;2022-07-29T01:00:14;95973;;;21.56;55.77
2711;BME280;20721;47.402;8.550;2022-07-29T01:01:12;95968;;;21.45;56.04
2711;BME280;20721;47.402;8.550;2022-07-29T01:02:12;95972;;;21.40;56.11
2711;BME280;20721;47.402;8.550;2022-07-29T01:03:12;95971;;;21.41;56.24
2711;BME280;20721;47.402;8.550;2022-07-29T01:04:14;95969;;;21.46;55.96
2711;BME280;20721;47.402;8.550;2022-07-29T01:05:12;95967;;;21.53;55.78
2711;BME280;20721;47.402;8.550;2022-07-29T01:06:12;95970;;;21.57;55.99
2711;BME280;20721;47.402;8.550;2022-07-29T01:07:12;95968;;;21.59;56.15
2711;BME280;20721;47.402;8.550;2022-07-29T01:08:12;95968;;;21.56;56.35
2711;BME280;20721;47.402;8.550;2022-07-29T01:09:12;95968;;;21.55;56.46
2711;BME280;20721;47.402;8.550;2022-07-29T01:10:13;95968;;;21.56;56.47
2711;BME280;20721;47.402;8.550;2022-07-29T01:11:12;95970;;;21.58;56.48
2711;BME280;20721;47.402;8.550;2022-07-29T01:12:15;95968;;;21.60;56.44
2711;BME280;20721;47.402;8.550;2022-07-29T01:13:12;95970;;;21.61;56.38
2711;BME280;20721;47.402;8.550;2022-07-29T01:14:12;95971;;;21.60;56.24
2711;BME280;20721;47.402;8.550;2022-07-29T01:15:12;95970;;;21.57;55.99
2711;BME280;20721;47.402;8.550;2022-07-29T01:16:13;95973;;;21.51;56.09
2711;BME280;20721;47.402;8.550;2022-07-29T01:18:22;95969;;;21.50;56.08
2711;BME280;20721;47.402;8.550;2022-07-29T01:19:14;95970;;;21.51;56.15
2711;BME280;20721;47.402;8.550;2022-07-29T01:21:17;95971;;;21.55;56.41
2711;BME280;20721;47.402;8.550;2022-07-29T01:30:15;95965;;;21.82;54.96
2711;BME280;20721;47.402;8.550;2022-07-29T01:31:24;95965;;;21.83;54.83
2711;BME280;20721;47.402;8.550;2022-07-29T01:32:24;95963;;;21.87;54.95
2711;BME280;20721;47.402;8.550;2022-07-29T01:33:22;95964;;;21.86;54.87
2711;BME280;20721;47.402;8.550;2022-07-29T01:34:16;95962;;;21.85;54.89
2711;BME280;20721;47.402;8.550;2022-07-29T01:35:21;95963;;;21.86;54.98
2711;BME280;20721;47.402;8.550;2022-07-29T01:36:13;95966;;;21.84;55.05
2711;BME280;20721;47.402;8.550;2022-07-29T01:37:18;95963;;;21.86;54.98
2711;BME280;20721;47.402;8.550;2022-07-29T01:38:13;95964;;;21.87;54.93
2711;BME280;20721;47.402;8.550;2022-07-29T01:39:14;95963;;;21.88;54.92
2711;BME280;20721;47.402;8.550;2022-07-29T01:40:15;95965;;;21.92;54.95
2711;BME280;20721;47.402;8.550;2022-07-29T01:41:14;95964;;;21.93;54.93
2711;BME280;20721;47.402;8.550;2022-07-29T01:42:26;95964;;;21.94;54.87
2711;BME280;20721;47.402;8.550;2022-07-29T01:43:14;95964;;;21.96;54.79
2711;BME280;20721;47.402;8.550;2022-07-29T01:44:15;95963;;;21.98;54.74
2711;BME280;20721;47.402;8.550;2022-07-29T01:45:14;95963;;;21.96;54.77
2711;BME280;20721;47.402;8.550;2022-07-29T01:46:13;95960;;;21.94;54.85
2711;BME280;20721;47.402;8.550;2022-07-29T01:47:14;95957;;;21.92;54.99
2711;BME280;20721;47.402;8.550;2022-07-29T01:48:15;95957;;;21.93;55.03
2711;BME280;20721;47.402;8.550;2022-07-29T01:52:16;95952;;;21.91;54.89
2711;BME280;20721;47.402;8.550;2022-07-29T01:53:12;95951;;;21.86;55.00
2711;BME280;20721;47.402;8.550;2022-07-29T01:55:13;95953;;;21.80;55.18
2711;BME280;20721;47.402;8.550;2022-07-29T01:56:12;95951;;;21.77;55.30
2711;BME280;20721;47.402;8.550;2022-07-29T01:57:18;95951;;;21.72;55.38
2711;BME280;20721;47.402;8.550;2022-07-29T01:58:12;95954;;;21.67;55.52
2711;BME280;20721;47.402;8.550;2022-07-29T01:59:12;95956;;;21.62;55.59
2711;BME280;20721;47.402;8.550;2022-07-29T02:00:12;95957;;;21.66;55.58
2711;BME280;20721;47.402;8.550;2022-07-29T02:01:12;95956;;;21.63;55.61
2711;BME280;20721;47.402;8.550;2022-07-29T02:02:13;95959;;;21.57;55.79
2711;BME280;20721;47.402;8.550;2022-07-29T02:03:12;95961;;;21.49;55.96
2711;BME280;20721;47.402;8.550;2022-07-29T02:04:22;95961;;;21.39;56.21
2711;BME280;20721;47.402;8.550;2022-07-29T02:05:13;95960;;;21.26;56.45
2711;BME280;20721;47.402;8.550;2022-07-29T02:06:12;95965;;;21.18;56.76
2711;BME280;20721;47.402;8.550;2022-07-29T02:07:12;95960;;;21.15;56.80
2711;BME280;20721;47.402;8.550;2022-07-29T02:08:12;95966;;;21.17;56.86
2711;BME280;20721;47.402;8.550;2022-07-29T02:09:12;95967;;;21.15;56.91
2711;BME280;20721;47.402;8.550;2022-07-29T02:10:12;95963;;;21.16;56.87
2711;BME280;20721;47.402;8.550;2022-07-29T02:11:12;95964;;;21.19;56.82
2711;BME280;20721;47.402;8.550;2022-07-29T02:12:12;95965;;;21.17;56.90
2711;BME280;20721;47.402;8.550;2022-07-29T02:13:12;95969;;;21.15;56.89
2711;BME280;20721;47.402;8.550;2022-07-29T02:14:12;95968;;;21.11;56.87
2711;BME280;20721;47.402;8.550;2022-07-29T02:15:14;95965;;;21.10;56.84
2711;BME280;20721;47.402;8.550;2022-07-29T02:16:12;95968;;;21.14;56.67
2711;BME280;20721;47.402;8.550;2022-07-29T02:17:12;95965;;;21.19;56.56
2711;BME280;20721;47.402;8.550;2022-07-29T02:18:15;95964;;;21.25;56.41
2711;BME280;20721;47.402;8.550;2022-07-29T02:19:12;95967;;;21.28;56.21
2711;BME280;20721;47.402;8.550;2022-07-29T02:22:12;95966;;;21.27;56.13
2711;BME280;20721;47.402;8.550;2022-07-29T02:23:12;95966;;;21.28;56.14
2711;BME280;20721;47.402;8.550;2022-07-29T02:24:12;95968;;;21.29;56.12
2711;BME280;20721;47.402;8.550;2022-07-29T02:25:14;95973;;;21.30;56.08
2711;BME280;20721;47.402;8.550;2022-07-29T02:26:13;95970;;;21.33;56.05
2711;BME280;20721;47.402;8.550;2022-07-29T02:27:12;95973;;;21.34;56.02
2711;BME280;20721;47.402;8.550;2022-07-29T02:28:12;95968;;;21.35;56.03
2711;BME280;20721;47.402;8.550;2022-07-29T02:29:12;95968;;;21.39;55.91
2711;BME280;20721;47.402;8.550;2022-07-29T02:31:12;95962;;;21.37;55.90
2711;BME280;20721;47.402;8.550;2022-07-29T02:32:13;95959;;;21.31;55.99
2711;BME280;20721;47.402;8.550;2022-07-29T02:33:13;95954;;;21.35;56.07
2711;BME280;20721;47.402;8.550;2022-07-29T02:34:20;95953;;;21.31;56.25
2711;BME280;20721;47.402;8.550;2022-07-29T02:35:12;95957;;;21.27;56.33
2711;BME280;20721;47.402;8.550;2022-07-29T02:36:12;95956;;;21.22;56.47
2711;BME280;20721;47.402;8.550;2022-07-29T02:37:12;95956;;;21.17;56.59
2711;BME280;20721;47.402;8.550;2022-07-29T02:39:12;95956;;;21.19;56.62
2711;BME280;20721;47.402;8.550;2022-07-29T02:40:12;95957;;;21.20;56.63
2711;BME280;20721;47.402;8.550;2022-07-29T02:41:13;95960;;;21.15;56.83
2711;BME280;20721;47.402;8.550;2022-07-29T02:42:13;95958;;;21.08;57.04
2711;BME280;20721;47.402;8.550;2022-07-29T02:43:12;95959;;;21.07;57.18
2711;BME280;20721;47.402;8.550;2022-07-29T02:44:14;95960;;;21.04;57.28
2711;BME280;20721;47.402;8.550;2022-07-29T02:45:12;95960;;;20.98;57.42
2711;BME280;20721;47.402;8.550;2022-07-29T02:46:26;95960;;;20.90;57.67
2711;BME280;20721;47.402;8.550;2022-07-29T02:47:14;95961;;;20.82;58.02
2711;BME280;20721;47.402;8.550;2022-07-29T02:48:13;95958;;;20.79;58.17
2711;BME280;20721;47.402;8.550;2022-07-29T02:49:17;95956;;;20.82;58.19
2711;BME280;20721;47.402;8.550;2022-07-29T02:50:13;95954;;;20.81;58.12
2711;BME280;20721;47.402;8.550;2022-07-29T02:51:25;95955;;;20.78;58.24
2711;BME280;20721;47.402;8.550;2022-07-29T02:52:14;95955;;;20.79;58.18
2711;BME280;20721;47.402;8.550;2022-07-29T02:57:14;95965;;;20.74;58.00
2711;BME280;20721;47.402;8.550;2022-07-29T02:58:15;95966;;;20.76;57.96
2711;BME280;20721;47.402;8.550;2022-07-29T02:59:12;95965;;;20.78;57.83
2711;BME280;20721;47.402;8.550;2022-07-29T03:01:15;95969;;;20.74;57.93
2711;BME280;20721;47.402;8.550;2022-07-29T03:02:12;95970;;;20.67;58.26
2711;BME280;20721;47.402;8.550;2022-07-29T03:03:13;95966;;;20.56;58.69
2711;BME280;20721;47.402;8.550;2022-07-29T03:04:12;95967;;;20.45;59.01
2711;BME280;20721;47.402;8.550;2022-07-29T03:05:15;95967;;;20.32;59.27
2711;BME280;20721;47.402;8.550;2022-07-29T03:06:23;95968;;;20.27;59.42
2711;BME280;20721;47.402;8.550;2022-07-29T03:08:12;95964;;;20.31;59.41
2711;BME280;20721;47.402;8.550;2022-07-29T03:09:13;95969;;;20.37;59.27
2711;BME280;20721;47.402;8.550;2022-07-29T03:10:14;95969;;;20.41;58.99
2711;BME280;20721;47.402;8.550;2022-07-29T03:11:17;95972;;;20.45;59.01
2711;BME280;20721;47.402;8.550;2022-07-29T03:12:12;95973;;;20.48;58.91
2711;BME280;20721;47.402;8.550;2022-07-29T03:13:13;95978;;;20.56;58.79
2711;BME280;20721;47.402;8.550;2022-07-29T03:14:12;95978;;;20.66;58.63
2711;BME280;20721;47.402;8.550;2022-07-29T03:15:12;95980;;;20.76;58.26
2711;BME280;20721;47.402;8.550;2022-07-29T03:16:12;95983;;;20.84;58.03
2711;BME280;20721;47.402;8.550;2022-07-29T03:17:12;95977;;;20.92;57.81
2711;BME280;20721;47.402;8.550;2022-07-29T03:18:12;95979;;;20.98;57.67
2711;BME280;20721;47.402;8.550;2022-07-29T03:19:12;95986;;;21.07;57.61
2711;BME280;20721;47.402;8.550;2022-07-29T03:20:12;95982;;;21.12;57.55
2711;BME280;20721;47.402;8.550;2022-07-29T03:21:12;95983;;;21.18;57.30
2711;BME280;20721;47.402;8.550;2022-07-29T03:22:12;95989;;;21.23;57.43
2711;BME280;20721;47.402;8.550;2022-07-29T03:23:12;95992;;;21.27;57.28
2711;BME280;20721;47.402;8.550;2022-07-29T03:24:29;95986;;;21.29;56.82
2711;BME280;20721;47.402;8.550;2022-07-29T03:25:13;95990;;;21.33;56.99
2711;BME280;20721;47.402;8.550;2022-07-29T03:26:12;95986;;;21.26;56.51
2711;BME280;20721;47.402;8.550;2022-07-29T03:27:12;95988;;;21.22;56.84
2711;BME280;20721;47.402;8.550;2022-07-29T03:28:12;95986;;;21.17;57.39
2711;BME280;20721;47.402;8.550;2022-07-29T03:30:18;95988;;;21.22;57.52
2711;BME280;20721;47.402;8.550;2022-07-29T03:31:13;95992;;;21.27;58.02
2711;BME280;20721;47.402;8.550;2022-07-29T03:32:12;95992;;;21.30;57.90
2711;BME280;20721;47.402;8.550;2022-07-29T03:33:14;95993;;;21.34;58.49
2711;BME280;20721;47.402;8.550;2022-07-29T03:35:12;95984;;;21.33;58.35
2711;BME280;20721;47.402;8.550;2022-07-29T03:36:13;95983;;;21.30;58.59
2711;BME280;20721;47.402;8.550;2022-07-29T03:37:12;95979;;;21.22;58.67
2711;BME280;20721;47.402;8.550;2022-07-29T03:38:12;95979;;;21.19;58.85
2711;BME280;20721;47.402;8.550;2022-07-29T03:39:13;95978;;;21.11;58.97
2711;BME280;20721;47.402;8.550;2022-07-29T03:41:12;95975;;;21.13;59.44
2711;BME280;20721;47.402;8.550;2022-07-29T03:42:13;95979;;;21.18;59.58
2711;BME280;20721;47.402;8.550;2022-07-29T03:43:12;95991;;;21.17;59.38
2711;BME280;20721;47.402;8.550;2022-07-29T03:44:13;95996;;;21.15;59.68
2711;BME280;20721;47.402;8.550;2022-07-29T03:45:13;95991;;;21.14;59.87
2711;BME280;20721;47.402;8.550;2022-07-29T03:46:12;95991;;;21.12;60.11
2711;BME280;20721;47.402;8.550;2022-07-29T03:47:13;95994;;;21.11;60.05
2711;BME280;20721;47.402;8.550;2022-07-29T03:48:13;95992;;;21.03;60.00
2711;BME280;20721;47.402;8.550;2022-07-29T03:49:12;95990;;;21.01;60.20
2711;BME280;20721;47.402;8.550;2022-07-29T03:50:13;95993;;;20.99;60.60
2711;BME280;20721;47.402;8.550;2022-07-29T03:51:12;95991;;;21.01;60.31
2711;BME280;20721;47.402;8.550;2022-07-29T03:52:12;95989;;;21.00;60.33
2711;BME280;20721;47.402;8.550;2022-07-29T03:53:12;95984;;;20.96;60.59
2711;BME280;20721;47.402;8.550;2022-07-29T03:54:12;95985;;;20.95;60.71
2711;BME280;20721;47.402;8.550;2022-07-29T03:55:12;95984;;;20.85;60.90
2711;BME280;20721;47.402;8.550;2022-07-29T03:56:12;95979;;;20.71;61.48
2711;BME280;20721;47.402;8.550;2022-07-29T03:57:12;95973;;;20.61;61.87
2711;BME280;20721;47.402;8.550;2022-07-29T03:58:12;95963;;;20.35;62.28
2711;BME280;20721;47.402;8.550;2022-07-29T03:59:13;95958;;;20.27;63.29
2711;BME280;20721;47.402;8.550;2022-07-29T04:00:12;95963;;;20.25;63.21
2711;BME280;20721;47.402;8.550;2022-07-29T04:01:12;95966;;;20.24;62.92
2711;BME280;20721;47.402;8.550;2022-07-29T04:02:12;95968;;;20.27;63.42
2711;BME280;20721;47.402;8.550;2022-07-29T04:03:15;95972;;;20.31;63.18
2711;BME280;20721;47.402;8.550;2022-07-29T04:04:13;95973;;;20.37;63.21
2711;BME280;20721;47.402;8.550;2022-07-29T04:05:12;95967;;;20.43;62.79
2711;BME280;20721;47.402;8.550;2022-07-29T04:06:12;95963;;;20.49;62.95
2711;BME280;20721;47.402;8.550;2022-07-29T04:07:13;95964;;;20.48;62.49
2711;BME280;20721;47.402;8.550;2022-07-29T04:08:12;95965;;;20.47;62.32
2711;BME280;20721;47.402;8.550;2022-07-29T04:09:12;95967;;;20.40;62.40
2711;BME280;20721;47.402;8.550;2022-07-29T04:11:12;95973;;;20.28;62.48
2711;BME280;20721;47.402;8.550;2022-07-29T04:12:12;95974;;;20.20;62.47
2711;BME280;20721;47.402;8.550;2022-07-29T04:13:12;95977;;;20.12;62.93
2711;BME280;20721;47.402;8.550;2022-07-29T04:15:12;95984;;;20.14;62.81
2711;BME280;20721;47.402;8.550;2022-07-29T04:16:12;95984;;;20.20;63.04
2711;BME280;20721;47.402;8.550;2022-07-29T04:17:12;95982;;;20.29;63.24
2711;BME280;20721;47.402;8.550;2022-07-29T04:18:12;95986;;;20.42;62.59
2711;BME280;20721;47.402;8.550;2022-07-29T04:19:12;95983;;;20.53;62.61
2711;BME280;20721;47.402;8.550;2022-07-29T04:20:13;95985;;;20.64;62.45
2711;BME280;20721;47.402;8.550;2022-07-29T04:21:13;95984;;;20.70;61.84
2711;BME280;20721;47.402;8.550;2022-07-29T04:22:13;95983;;;20.76;61.89
2711;BME280;20721;47.402;8.550;2022-07-29T04:23:12;95979;;;20.80;61.65
2711;BME280;20721;47.402;8.550;2022-07-29T04:24:13;95974;;;20.83;61.37
2711;BME280;20721;47.402;8.550;2022-07-29T04:25:12;95975;;;20.88;61.35
2711;BME280;20721;47.402;8.550;2022-07-29T04:26:12;95974;;;20.89;61.79
2711;BME280;20721;47.402;8.550;2022-07-29T04:27:12;95974;;;20.92;60.99
2711;BME280;20721;47.402;8.550;2022-07-29T04:28:12;95972;;;20.95;60.75
2711;BME280;20721;47.402;8.550;2022-07-29T04:29:14;95973;;;20.98;60.64
2711;BME280;20721;47.402;8.550;2022-07-29T04:30:12;95972;;;20.97;60.39
2711;BME280;20721;47.402;8.550;2022-07-29T04:32:13;95974;;;20.96;60.23
2711;BME280;20721;47.402;8.550;2022-07-29T04:35:12;95982;;;21.00;60.63
2711;BME280;20721;47.402;8.550;2022-07-29T04:36:22;95982;;;21.03;60.80
2711;BME280;20721;47.402;8.550;2022-07-29T04:37:12;95983;;;21.04;60.80
2711;BME280;20721;47.402;8.550;2022-07-29T04:38:17;95983;;;21.03;60.38
2711;BME280;20721;47.402;8.550;2022-07-29T04:39:12;95983;;;20.98;60.39
2711;BME280;20721;47.402;8.550;2022-07-29T04:40:12;95981;;;20.97;60.66
2711;BME280;20721;47.402;8.550;2022-07-29T04:41:14;95983;;;20.98;60.18
2711;BME280;20721;47.402;8.550;2022-07-29T04:42:13;95986;;;21.00;60.12
2711;BME280;20721;47.402;8.550;2022-07-29T04:43:14;95983;;;21.02;60.10
2711;BME280;20721;47.402;8.550;2022-07-29T04:44:14;95983;;;20.99;59.92
2711;BME280;20721;47.402;8.550;2022-07-29T04:45:14;95982;;;20.86;60.30
2711;BME280;20721;47.402;8.550;2022-07-29T04:46:12;95984;;;20.83;60.58
2711;BME280;20721;47.402;8.550;2022-07-29T04:47:12;95981;;;20.84;60.87
2711;BME280;20721;47.402;8.550;2022-07-29T04:48:12;95980;;;20.85;60.57
2711;BME280;20721;47.402;8.550;2022-07-29T04:49:13;95975;;;20.86;60.52
2711;BME280;20721;47.402;8.550;2022-07-29T04:50:12;95978;;;20.84;60.79
2711;BME280;20721;47.402;8.550;2022-07-29T04:51:13;95975;;;20.85;60.80
2711;BME280;20721;47.402;8.550;2022-07-29T04:53:12;95975;;;20.86;60.82
2711;BME280;20721;47.402;8.550;2022-07-29T04:54:13;95973;;;20.84;60.45
2711;BME280;20721;47.402;8.550;2022-07-29T04:55:12;95973;;;20.86;60.44
2711;BME280;20721;47.402;8.550;2022-07-29T04:56:12;95973;;;20.87;60.52
2711;BME280;20721;47.402;8.550;2022-07-29T04:57:12;95977;;;20.89;60.41
2711;BME280;20721;47.402;8.550;2022-07-29T04:58:12;95977;;;20.90;60.58
2711;BME280;20721;47.402;8.550;2022-07-29T04:59:13;95976;;;20.91;60.22
2711;BME280;20721;47.402;8.550;2022-07-29T05:00:12;95976;;;20.94;60.04
2711;BME280;20721;47.402;8.550;2022-07-29T05:01:13;95979;;;20.93;59.71
2711;BME280;20721;47.402;8.550;2022-07-29T05:03:12;95986;;;20.95;59.71
2711;BME280;20721;47.402;8.550;2022-07-29T05:04:13;95985;;;20.98;59.60
2711;BME280;20721;47.402;8.550;2022-07-29T05:05:15;95987;;;21.00;59.53
2711;BME280;20721;47.402;8.550;2022-07-29T05:06:12;95989;;;21.04;59.53
2711;BME280;20721;47.402;8.550;2022-07-29T05:07:12;95992;;;21.08;59.30
2711;BME280;20721;47.402;8.550;2022-07-29T05:08:12;95990;;;21.11;59.13
2711;BME280;20721;47.402;8.550;2022-07-29T05:09:12;95989;;;21.12;58.76
2711;BME280;20721;47.402;8.550;2022-07-29T05:10:12;95989;;;21.07;58.92
2711;BME280;20721;47.402;8.550;2022-07-29T05:11:17;95990;;;21.03;59.04
2711;BME280;20721;47.402;8.550;2022-07-29T05:12:12;95994;;;20.99;59.29
2711;BME280;20721;47.402;8.550;2022-07-29T05:13:12;95993;;;20.89;59.36
2711;BME280;20721;47.402;8.550;2022-07-29T05:14:13;95994;;;20.70;59.51
2711;BME280;20721;47.402;8.550;2022-07-29T05:15:12;95990;;;20.67;59.67
2711;BME280;20721;47.402;8.550;2022-07-29T05:16:13;95988;;;20.71;59.82
2711;BME280;20721;47.402;8.550;2022-07-29T05:17:12;95988;;;20.77;59.70
2711;BME280;20721;47.402;8.550;2022-07-29T05:18:12;95986;;;20.83;59.47
2711;BME280;20721;47.402;8.550;2022-07-29T05:19:14;95985;;;20.90;59.54
2711;BME280;20721;47.402;8.550;2022-07-29T05:20:12;95984;;;20.98;59.24
2711;BME280;20721;47.402;8.550;2022-07-29T05:21:12;95986;;;21.06;59.12
2711;BME280;20721;47.402;8.550;2022-07-29T05:22:12;95985;;;21.14;59.01
2711;BME280;20721;47.402;8.550;2022-07-29T05:23:13;95987;;;21.15;58.45
2711;BME280;20721;47.402;8.550;2022-07-29T05:24:13;95986;;;21.16;58.68
2711;BME280;20721;47.402;8.550;2022-07-29T05:25:12;95985;;;21.18;58.66
2711;BME280;20721;47.402;8.550;2022-07-29T05:26:12;95985;;;21.23;58.71
2711;BME280;20721;47.402;8.550;2022-07-29T05:27:13;95983;;;21.29;58.60
2711;BME280;20721;47.402;8.550;2022-07-29T05:28:12;95984;;;21.35;58.63
2711;BME280;20721;47.402;8.550;2022-07-29T05:29:22;95986;;;21.40;58.55
2711;BME280;20721;47.402;8.550;2022-07-29T05:31:14;95998;;;21.39;58.74
2711;BME280;20721;47.402;8.550;2022-07-29T05:32:12;96000;;;21.20;59.35
2711;BME280;20721;47.402;8.550;2022-07-29T05:33:22;95998;;;21.06;59.74
2711;BME280;20721;47.402;8.550;2022-07-29T05:34:13;96003;;;21.04;59.88
2711;BME280;20721;47.402;8.550;2022-07-29T05:36:13;96005;;;21.07;59.98
2711;BME280;20721;47.402;8.550;2022-07-29T05:38:12;96008;;;21.01;60.44
2711;BME280;20721;47.402;8.550;2022-07-29T05:39:13;96006;;;20.98;60.67
2711;BME280;20721;47.402;8.550;2022-07-29T05:40:12;96006;;;20.97;60.58
2711;BME280;20721;47.402;8.550;2022-07-29T05:41:12;96005;;;21.00;60.76
2711;BME280;20721;47.402;8.550;2022-07-29T05:42:12;96005;;;20.97;61.11
2711;BME280;20721;47.402;8.550;2022-07-29T05:43:12;96002;;;20.96;61.21
2711;BME280;20721;47.402;8.550;2022-07-29T05:44:13;96004;;;21.03;61.12
2711;BME280;20721;47.402;8.550;2022-07-29T05:45:12;96001;;;21.06;61.13
2711;BME280;20721;47.402;8.550;2022-07-29T05:46:13;96004;;;21.12;60.83
2711;BME280;20721;47.402;8.550;2022-07-29T05:47:13;96003;;;21.15;60.95
2711;BME280;20721;47.402;8.550;2022-07-29T05:48:12;95999;;;21.19;60.44
2711;BME280;20721;47.402;8.550;2022-07-29T05:49:23;95996;;;21.26;60.62
2711;BME280;20721;47.402;8.550;2022-07-29T05:50:12;95992;;;21.34;60.44
2711;BME280;20721;47.402;8.550;2022-07-29T05:51:12;95994;;;21.35;59.65
2711;BME280;20721;47.402;8.550;2022-07-29T05:52:13;95996;;;21.42;60.03
2711;BME280;20721;47.402;8.550;2022-07-29T05:53:20;95993;;;21.37;59.71
2711;BME280;20721;47.402;8.550;2022-07-29T05:54:13;95995;;;21.39;60.16
2711;BME280;20721;47.402;8.550;2022-07-29T05:55:12;95996;;;21.18;60.42
2711;BME280;20721;47.402;8.550;2022-07-29T05:56:12;95991;;;20.98;61.17
2711;BME280;20721;47.402;8.550;2022-07-29T05:57:21;95989;;;20.94;61.50
2711;BME280;20721;47.402;8.550;2022-07-29T05:58:12;95994;;;21.00;61.46
2711;BME280;20721;47.402;8.550;2022-07-29T05:59:18;95991;;;21.06;61.41
2711;BME280;20721;47.402;8.550;2022-07-29T06:01:13;95998;;;21.12;61.26
2711;BME280;20721;47.402;8.550;2022-07-29T06:02:13;96001;;;21.21;60.84
2711;BME280;20721;47.402;8.550;2022-07-29T06:03:12;96000;;;21.29;60.79
2711;BME280;20721;47.402;8.550;2022-07-29T06:04:13;96007;;;21.37;60.09
2711;BME280;20721;47.402;8.550;2022-07-29T06:05:17;96002;;;21.44;59.53
2711;BME280;20721;47.402;8.550;2022-07-29T06:06:12;96005;;;21.54;59.56
2711;BME280;20721;47.402;8.550;2022-07-29T06:07:13;96003;;;21.62;59.36
2711;BME280;20721;47.402;8.550;2022-07-29T06:08:13;96006;;;21.75;59.25
2711;BME280;20721;47.402;8.550;2022-07-29T06:09:14;96013;;;21.79;58.92
2711;BME280;20721;47.402;8.550;2022-07-29T06:10:13;96014;;;21.77;58.67
2711;BME280;20721;47.402;8.550;2022-07-29T06:11:13;96019;;;21.74;58.57
2711;BME280;20721;47.402;8.550;2022-07-29T06:12:13;96018;;;21.62;58.76
2711;BME280;20721;47.402;8.550;2022-07-29T06:13:15;96020;;;21.56;58.87
2711;BME280;20721;47.402;8.550;2022-07-29T06:14:13;96021;;;21.55;59.03
2711;BME280;20721;47.402;8.550;2022-07-29T06:15:13;96019;;;21.57;59.02
2711;BME280;20721;47.402;8.550;2022-07-29T06:16:18;96022;;;21.64;58.90
2711;BME280;20721;47.402;8.550;2022-07-29T06:17:13;96029;;;21.71;58.68
2711;BME280;20721;47.402;8.550;2022-07-29T06:18:14;96029;;;21.76;58.45